sensor_id;sensor_type;location;lat;lon;timestamp;P1;durP1;ratioP1;P2;durP2;ratioP2
19788;SDS011;10054;59.332;18.244;2023-04-24T00:00:48;3.10;;;2.67;;
19788;SDS011;10054;59.332;18.244;2023-04-24T00:03:17;2.87;;;2.67;;
19788;SDS011;10054;59.332;18.244;2023-04-24T00:05:47;2.77;;;2.57;;
19788;SDS011;10054;59.332;18.244;2023-04-24T00:08:16;2.70;;;2.50;;
19788;SDS011;10054;59.332;18.244;2023-04-24T00:10:46;3.47;;;2.80;;
19788;SDS011;10054;59.332;18.244;2023-04-24T00:13:16;2.90;;;2.70;;
19788;SDS011;10054;59.332;18.244;2023-04-24T00:15:45;3.00;;;2.73;;
19788;SDS011;10054;59.332;18.244;2023-04-24T00:18:14;3.10;;;2.80;;
19788;SDS011;10054;59.332;18.244;2023-04-24T00:20:42;3.07;;;2.70;;
19788;SDS011;10054;59.332;18.244;2023-04-24T00:23:13;2.73;;;2.53;;
19788;SDS011;10054;59.332;18.244;2023-04-24T00:25:42;2.73;;;2.50;;
19788;SDS011;10054;59.332;18.244;2023-04-24T00:28:11;3.50;;;2.70;;
19788;SDS011;10054;59.332;18.244;2023-04-24T00:30:40;6.53;;;2.87;;
19788;SDS011;10054;59.332;18.244;2023-04-24T00:33:09;2.90;;;2.60;;
19788;SDS011;10054;59.332;18.244;2023-04-24T00:35:38;3.43;;;3.10;;
19788;SDS011;10054;59.332;18.244;2023-04-24T00:38:07;3.10;;;2.87;;
19788;SDS011;10054;59.332;18.244;2023-04-24T00:40:36;3.20;;;2.90;;
19788;SDS011;10054;59.332;18.244;2023-04-24T00:43:05;4.57;;;3.00;;
19788;SDS011;10054;59.332;18.244;2023-04-24T00:45:34;6.00;;;3.20;;
19788;SDS011;10054;59.332;18.244;2023-04-24T00:48:03;4.17;;;3.17;;
19788;SDS011;10054;59.332;18.244;2023-04-24T00:50:33;3.77;;;3.40;;
19788;SDS011;10054;59.332;18.244;2023-04-24T00:53:03;4.93;;;3.50;;
19788;SDS011;10054;59.332;18.244;2023-04-24T00:55:32;3.53;;;3.20;;
19788;SDS011;10054;59.332;18.244;2023-04-24T00:58:03;4.43;;;3.37;;
19788;SDS011;10054;59.332;18.244;2023-04-24T01:00:53;4.63;;;3.70;;
19788;SDS011;10054;59.332;18.244;2023-04-24T01:03:29;3.80;;;3.20;;
19788;SDS011;10054;59.332;18.244;2023-04-24T01:05:55;4.53;;;3.70;;
19788;SDS011;10054;59.332;18.244;2023-04-24T01:08:25;5.23;;;3.60;;
19788;SDS011;10054;59.332;18.244;2023-04-24T01:10:56;3.40;;;3.10;;
19788;SDS011;10054;59.332;18.244;2023-04-24T01:13:26;5.77;;;3.80;;
19788;SDS011;10054;59.332;18.244;2023-04-24T01:15:56;3.10;;;2.80;;
19788;SDS011;10054;59.332;18.244;2023-04-24T01:18:27;3.70;;;3.10;;
19788;SDS011;10054;59.332;18.244;2023-04-24T01:21:02;5.77;;;3.90;;
19788;SDS011;10054;59.332;18.244;2023-04-24T01:23:27;4.67;;;3.17;;
19788;SDS011;10054;59.332;18.244;2023-04-24T01:25:56;4.70;;;3.67;;
19788;SDS011;10054;59.332;18.244;2023-04-24T01:28:25;4.40;;;3.70;;
19788;SDS011;10054;59.332;18.244;2023-04-24T01:30:54;4.30;;;3.53;;
19788;SDS011;10054;59.332;18.244;2023-04-24T01:33:23;4.00;;;2.67;;
19788;SDS011;10054;59.332;18.244;2023-04-24T01:35:53;4.27;;;2.97;;
19788;SDS011;10054;59.332;18.244;2023-04-24T01:38:22;4.87;;;3.27;;
19788;SDS011;10054;59.332;18.244;2023-04-24T01:40:52;4.33;;;3.07;;
19788;SDS011;10054;59.332;18.244;2023-04-24T01:43:21;3.73;;;2.83;;
19788;SDS011;10054;59.332;18.244;2023-04-24T01:45:51;3.63;;;2.77;;
19788;SDS011;10054;59.332;18.244;2023-04-24T01:48:20;5.17;;;2.90;;
19788;SDS011;10054;59.332;18.244;2023-04-24T01:50:49;3.47;;;2.90;;
19788;SDS011;10054;59.332;18.244;2023-04-24T01:53:18;6.07;;;2.20;;
19788;SDS011;10054;59.332;18.244;2023-04-24T01:55:47;3.93;;;2.20;;
19788;SDS011;10054;59.332;18.244;2023-04-24T01:58:16;6.07;;;2.37;;
19788;SDS011;10054;59.332;18.244;2023-04-24T02:00:45;5.30;;;2.30;;
19788;SDS011;10054;59.332;18.244;2023-04-24T02:03:14;7.00;;;2.10;;
19788;SDS011;10054;59.332;18.244;2023-04-24T02:05:48;3.47;;;2.37;;
19788;SDS011;10054;59.332;18.244;2023-04-24T02:08:13;4.70;;;2.77;;
19788;SDS011;10054;59.332;18.244;2023-04-24T02:10:42;9.40;;;2.83;;
19788;SDS011;10054;59.332;18.244;2023-04-24T02:13:11;12.80;;;3.00;;
19788;SDS011;10054;59.332;18.244;2023-04-24T02:15:40;4.77;;;2.83;;
19788;SDS011;10054;59.332;18.244;2023-04-24T02:18:08;14.70;;;2.93;;
19788;SDS011;10054;59.332;18.244;2023-04-24T02:20:38;8.87;;;3.00;;
19788;SDS011;10054;59.332;18.244;2023-04-24T02:23:08;12.40;;;3.20;;
19788;SDS011;10054;59.332;18.244;2023-04-24T02:25:38;9.80;;;3.10;;
19788;SDS011;10054;59.332;18.244;2023-04-24T02:28:07;5.03;;;2.97;;
19788;SDS011;10054;59.332;18.244;2023-04-24T02:30:35;5.30;;;3.00;;
19788;SDS011;10054;59.332;18.244;2023-04-24T02:33:04;5.63;;;2.83;;
19788;SDS011;10054;59.332;18.244;2023-04-24T02:35:33;5.63;;;2.80;;
19788;SDS011;10054;59.332;18.244;2023-04-24T02:38:02;3.97;;;2.83;;
19788;SDS011;10054;59.332;18.244;2023-04-24T02:40:31;5.03;;;2.60;;
19788;SDS011;10054;59.332;18.244;2023-04-24T02:43:01;7.53;;;2.90;;
19788;SDS011;10054;59.332;18.244;2023-04-24T02:45:30;7.67;;;2.73;;
19788;SDS011;10054;59.332;18.244;2023-04-24T02:48:00;6.80;;;2.77;;
19788;SDS011;10054;59.332;18.244;2023-04-24T02:50:29;5.30;;;2.80;;
19788;SDS011;10054;59.332;18.244;2023-04-24T02:53:00;5.43;;;3.27;;
19788;SDS011;10054;59.332;18.244;2023-04-24T02:55:28;6.43;;;2.90;;
19788;SDS011;10054;59.332;18.244;2023-04-24T02:57:58;5.53;;;3.23;;
19788;SDS011;10054;59.332;18.244;2023-04-24T03:00:26;5.03;;;3.07;;
19788;SDS011;10054;59.332;18.244;2023-04-24T03:02:55;6.87;;;3.37;;
19788;SDS011;10054;59.332;18.244;2023-04-24T03:05:24;6.30;;;3.27;;
19788;SDS011;10054;59.332;18.244;2023-04-24T03:07:53;6.40;;;3.23;;
19788;SDS011;10054;59.332;18.244;2023-04-24T03:10:22;6.07;;;3.63;;
19788;SDS011;10054;59.332;18.244;2023-04-24T03:12:51;6.03;;;3.40;;
19788;SDS011;10054;59.332;18.244;2023-04-24T03:15:21;5.33;;;3.40;;
19788;SDS011;10054;59.332;18.244;2023-04-24T03:17:50;7.87;;;3.87;;
19788;SDS011;10054;59.332;18.244;2023-04-24T03:20:19;7.13;;;3.50;;
19788;SDS011;10054;59.332;18.244;2023-04-24T03:22:49;7.60;;;3.53;;
19788;SDS011;10054;59.332;18.244;2023-04-24T03:25:18;5.67;;;3.20;;
19788;SDS011;10054;59.332;18.244;2023-04-24T03:27:47;7.50;;;3.40;;
19788;SDS011;10054;59.332;18.244;2023-04-24T03:30:18;6.83;;;3.33;;
19788;SDS011;10054;59.332;18.244;2023-04-24T03:32:48;7.17;;;3.63;;
19788;SDS011;10054;59.332;18.244;2023-04-24T03:35:19;9.70;;;3.60;;
19788;SDS011;10054;59.332;18.244;2023-04-24T03:37:48;6.03;;;3.43;;
19788;SDS011;10054;59.332;18.244;2023-04-24T03:40:35;5.80;;;3.20;;
19788;SDS011;10054;59.332;18.244;2023-04-24T03:43:05;8.33;;;3.63;;
19788;SDS011;10054;59.332;18.244;2023-04-24T03:45:36;7.27;;;3.70;;
19788;SDS011;10054;59.332;18.244;2023-04-24T03:48:06;7.53;;;3.80;;
19788;SDS011;10054;59.332;18.244;2023-04-24T03:50:35;16.30;;;4.03;;
19788;SDS011;10054;59.332;18.244;2023-04-24T03:53:04;9.40;;;3.63;;
19788;SDS011;10054;59.332;18.244;2023-04-24T03:55:37;11.27;;;4.17;;
19788;SDS011;10054;59.332;18.244;2023-04-24T03:58:09;11.37;;;3.90;;
19788;SDS011;10054;59.332;18.244;2023-04-24T04:00:40;10.67;;;3.87;;
19788;SDS011;10054;59.332;18.244;2023-04-24T04:03:14;7.90;;;3.53;;
19788;SDS011;10054;59.332;18.244;2023-04-24T04:05:43;9.77;;;4.27;;
19788;SDS011;10054;59.332;18.244;2023-04-24T04:08:13;5.93;;;3.43;;
19788;SDS011;10054;59.332;18.244;2023-04-24T04:10:42;5.67;;;3.47;;
19788;SDS011;10054;59.332;18.244;2023-04-24T04:13:11;6.03;;;3.60;;
19788;SDS011;10054;59.332;18.244;2023-04-24T04:15:40;5.03;;;3.67;;
19788;SDS011;10054;59.332;18.244;2023-04-24T04:18:09;6.47;;;3.77;;
19788;SDS011;10054;59.332;18.244;2023-04-24T04:20:38;7.33;;;3.87;;
19788;SDS011;10054;59.332;18.244;2023-04-24T04:23:07;6.53;;;4.20;;
19788;SDS011;10054;59.332;18.244;2023-04-24T04:25:38;7.27;;;4.30;;
19788;SDS011;10054;59.332;18.244;2023-04-24T04:28:07;6.43;;;3.83;;
19788;SDS011;10054;59.332;18.244;2023-04-24T04:30:36;7.27;;;4.40;;
19788;SDS011;10054;59.332;18.244;2023-04-24T04:33:05;6.83;;;4.07;;
19788;SDS011;10054;59.332;18.244;2023-04-24T04:35:35;7.20;;;3.80;;
19788;SDS011;10054;59.332;18.244;2023-04-24T04:38:04;6.67;;;4.17;;
19788;SDS011;10054;59.332;18.244;2023-04-24T04:40:38;7.03;;;4.00;;
19788;SDS011;10054;59.332;18.244;2023-04-24T04:43:07;4.70;;;3.40;;
19788;SDS011;10054;59.332;18.244;2023-04-24T04:45:41;6.80;;;3.70;;
19788;SDS011;10054;59.332;18.244;2023-04-24T04:48:19;7.70;;;4.13;;
19788;SDS011;10054;59.332;18.244;2023-04-24T04:50:48;9.53;;;4.13;;
19788;SDS011;10054;59.332;18.244;2023-04-24T04:53:17;6.57;;;3.67;;
19788;SDS011;10054;59.332;18.244;2023-04-24T04:55:46;10.00;;;4.27;;
19788;SDS011;10054;59.332;18.244;2023-04-24T04:58:17;7.17;;;3.87;;
19788;SDS011;10054;59.332;18.244;2023-04-24T05:00:48;8.60;;;3.83;;
19788;SDS011;10054;59.332;18.244;2023-04-24T05:03:18;8.00;;;3.87;;
19788;SDS011;10054;59.332;18.244;2023-04-24T05:05:48;7.27;;;4.63;;
19788;SDS011;10054;59.332;18.244;2023-04-24T05:08:17;8.93;;;4.10;;
19788;SDS011;10054;59.332;18.244;2023-04-24T05:10:47;8.40;;;4.03;;
19788;SDS011;10054;59.332;18.244;2023-04-24T05:13:16;9.87;;;4.63;;
19788;SDS011;10054;59.332;18.244;2023-04-24T05:15:45;8.03;;;4.57;;
19788;SDS011;10054;59.332;18.244;2023-04-24T05:18:15;7.63;;;4.80;;
19788;SDS011;10054;59.332;18.244;2023-04-24T05:20:44;7.63;;;4.77;;
19788;SDS011;10054;59.332;18.244;2023-04-24T05:23:13;7.73;;;4.17;;
19788;SDS011;10054;59.332;18.244;2023-04-24T05:25:43;8.03;;;3.93;;
19788;SDS011;10054;59.332;18.244;2023-04-24T05:28:14;7.07;;;3.30;;
19788;SDS011;10054;59.332;18.244;2023-04-24T05:30:44;6.17;;;3.53;;
19788;SDS011;10054;59.332;18.244;2023-04-24T05:33:13;5.10;;;3.37;;
19788;SDS011;10054;59.332;18.244;2023-04-24T05:35:43;4.83;;;3.00;;
19788;SDS011;10054;59.332;18.244;2023-04-24T05:38:13;7.23;;;3.63;;
19788;SDS011;10054;59.332;18.244;2023-04-24T05:40:44;6.00;;;3.50;;
19788;SDS011;10054;59.332;18.244;2023-04-24T05:43:13;11.80;;;3.53;;
19788;SDS011;10054;59.332;18.244;2023-04-24T05:45:42;5.17;;;3.40;;
19788;SDS011;10054;59.332;18.244;2023-04-24T05:48:10;4.23;;;2.90;;
19788;SDS011;10054;59.332;18.244;2023-04-24T05:50:39;3.77;;;2.60;;
19788;SDS011;10054;59.332;18.244;2023-04-24T05:53:09;4.63;;;2.73;;
19788;SDS011;10054;59.332;18.244;2023-04-24T05:55:37;7.90;;;2.87;;
19788;SDS011;10054;59.332;18.244;2023-04-24T05:58:06;6.63;;;3.23;;
19788;SDS011;10054;59.332;18.244;2023-04-24T06:00:36;4.80;;;2.70;;
19788;SDS011;10054;59.332;18.244;2023-04-24T06:03:07;9.20;;;2.80;;
19788;SDS011;10054;59.332;18.244;2023-04-24T06:05:36;7.33;;;2.90;;
19788;SDS011;10054;59.332;18.244;2023-04-24T06:08:05;4.13;;;2.30;;
19788;SDS011;10054;59.332;18.244;2023-04-24T06:10:35;3.07;;;1.90;;
19788;SDS011;10054;59.332;18.244;2023-04-24T06:13:05;4.87;;;1.90;;
19788;SDS011;10054;59.332;18.244;2023-04-24T06:15:35;4.20;;;2.00;;
19788;SDS011;10054;59.332;18.244;2023-04-24T06:18:05;2.50;;;1.80;;
19788;SDS011;10054;59.332;18.244;2023-04-24T06:20:35;3.43;;;2.00;;
19788;SDS011;10054;59.332;18.244;2023-04-24T06:23:04;4.03;;;1.70;;
19788;SDS011;10054;59.332;18.244;2023-04-24T06:25:33;4.57;;;2.40;;
19788;SDS011;10054;59.332;18.244;2023-04-24T06:28:02;3.93;;;2.47;;
19788;SDS011;10054;59.332;18.244;2023-04-24T06:30:31;4.60;;;2.10;;
19788;SDS011;10054;59.332;18.244;2023-04-24T06:33:00;3.37;;;2.10;;
19788;SDS011;10054;59.332;18.244;2023-04-24T06:35:29;3.33;;;1.77;;
19788;SDS011;10054;59.332;18.244;2023-04-24T06:37:58;2.57;;;1.90;;
19788;SDS011;10054;59.332;18.244;2023-04-24T06:40:27;2.13;;;1.60;;
19788;SDS011;10054;59.332;18.244;2023-04-24T06:42:56;3.33;;;2.20;;
19788;SDS011;10054;59.332;18.244;2023-04-24T06:45:26;2.03;;;1.33;;
19788;SDS011;10054;59.332;18.244;2023-04-24T06:47:55;3.40;;;1.67;;
19788;SDS011;10054;59.332;18.244;2023-04-24T06:50:24;2.47;;;1.50;;
19788;SDS011;10054;59.332;18.244;2023-04-24T06:52:53;2.47;;;1.67;;
19788;SDS011;10054;59.332;18.244;2023-04-24T06:55:22;3.53;;;1.73;;
19788;SDS011;10054;59.332;18.244;2023-04-24T06:57:50;1.40;;;1.23;;
19788;SDS011;10054;59.332;18.244;2023-04-24T07:00:19;2.50;;;1.43;;
19788;SDS011;10054;59.332;18.244;2023-04-24T07:02:50;3.27;;;1.73;;
19788;SDS011;10054;59.332;18.244;2023-04-24T07:05:19;4.70;;;1.50;;
19788;SDS011;10054;59.332;18.244;2023-04-24T07:07:47;2.13;;;1.57;;
19788;SDS011;10054;59.332;18.244;2023-04-24T07:10:18;2.40;;;1.70;;
19788;SDS011;10054;59.332;18.244;2023-04-24T07:12:48;2.53;;;2.00;;
19788;SDS011;10054;59.332;18.244;2023-04-24T07:15:17;2.53;;;2.00;;
19788;SDS011;10054;59.332;18.244;2023-04-24T07:17:46;3.07;;;2.13;;
19788;SDS011;10054;59.332;18.244;2023-04-24T07:20:15;2.03;;;1.83;;
19788;SDS011;10054;59.332;18.244;2023-04-24T07:22:44;1.97;;;1.60;;
19788;SDS011;10054;59.332;18.244;2023-04-24T07:25:12;2.90;;;1.80;;
19788;SDS011;10054;59.332;18.244;2023-04-24T07:27:41;2.50;;;2.00;;
19788;SDS011;10054;59.332;18.244;2023-04-24T07:30:10;2.03;;;1.83;;
19788;SDS011;10054;59.332;18.244;2023-04-24T07:32:39;2.10;;;1.90;;
19788;SDS011;10054;59.332;18.244;2023-04-24T07:35:08;1.70;;;1.60;;
19788;SDS011;10054;59.332;18.244;2023-04-24T07:37:37;2.30;;;1.90;;
19788;SDS011;10054;59.332;18.244;2023-04-24T07:40:06;2.33;;;1.83;;
19788;SDS011;10054;59.332;18.244;2023-04-24T07:42:36;2.03;;;1.60;;
19788;SDS011;10054;59.332;18.244;2023-04-24T07:45:05;3.07;;;1.83;;
19788;SDS011;10054;59.332;18.244;2023-04-24T07:47:34;3.83;;;1.60;;
19788;SDS011;10054;59.332;18.244;2023-04-24T07:50:06;2.67;;;1.70;;
19788;SDS011;10054;59.332;18.244;2023-04-24T07:52:35;1.77;;;1.50;;
19788;SDS011;10054;59.332;18.244;2023-04-24T07:55:04;2.23;;;1.47;;
19788;SDS011;10054;59.332;18.244;2023-04-24T07:57:33;1.40;;;1.30;;
19788;SDS011;10054;59.332;18.244;2023-04-24T08:00:03;1.50;;;1.40;;
19788;SDS011;10054;59.332;18.244;2023-04-24T08:02:34;1.80;;;1.43;;
19788;SDS011;10054;59.332;18.244;2023-04-24T08:05:02;1.60;;;1.50;;
19788;SDS011;10054;59.332;18.244;2023-04-24T08:07:32;1.60;;;1.50;;
19788;SDS011;10054;59.332;18.244;2023-04-24T08:10:01;1.50;;;1.40;;
19788;SDS011;10054;59.332;18.244;2023-04-24T08:12:31;1.63;;;1.40;;
19788;SDS011;10054;59.332;18.244;2023-04-24T08:14:59;1.60;;;1.50;;
19788;SDS011;10054;59.332;18.244;2023-04-24T08:17:28;1.80;;;1.70;;
19788;SDS011;10054;59.332;18.244;2023-04-24T08:19:57;2.30;;;2.10;;
19788;SDS011;10054;59.332;18.244;2023-04-24T08:22:27;2.80;;;2.60;;
19788;SDS011;10054;59.332;18.244;2023-04-24T08:24:56;2.57;;;2.37;;
19788;SDS011;10054;59.332;18.244;2023-04-24T08:27:27;5.07;;;4.60;;
19788;SDS011;10054;59.332;18.244;2023-04-24T08:29:56;5.00;;;4.50;;
19788;SDS011;10054;59.332;18.244;2023-04-24T08:32:26;4.63;;;4.03;;
19788;SDS011;10054;59.332;18.244;2023-04-24T08:34:55;3.20;;;3.00;;
19788;SDS011;10054;59.332;18.244;2023-04-24T08:37:25;3.73;;;3.33;;
19788;SDS011;10054;59.332;18.244;2023-04-24T08:39:54;2.47;;;2.27;;
19788;SDS011;10054;59.332;18.244;2023-04-24T08:42:23;2.60;;;2.40;;
19788;SDS011;10054;59.332;18.244;2023-04-24T08:44:53;2.40;;;2.20;;
19788;SDS011;10054;59.332;18.244;2023-04-24T08:47:22;2.50;;;2.40;;
19788;SDS011;10054;59.332;18.244;2023-04-24T08:49:53;6.33;;;5.73;;
19788;SDS011;10054;59.332;18.244;2023-04-24T08:52:23;2.80;;;2.50;;
19788;SDS011;10054;59.332;18.244;2023-04-24T08:54:54;3.07;;;2.67;;
19788;SDS011;10054;59.332;18.244;2023-04-24T08:57:24;2.27;;;1.90;;
19788;SDS011;10054;59.332;18.244;2023-04-24T08:59:54;1.97;;;1.50;;
19788;SDS011;10054;59.332;18.244;2023-04-24T09:02:24;1.50;;;1.40;;
19788;SDS011;10054;59.332;18.244;2023-04-24T09:04:53;1.93;;;1.43;;
19788;SDS011;10054;59.332;18.244;2023-04-24T09:07:24;2.10;;;1.97;;
19788;SDS011;10054;59.332;18.244;2023-04-24T09:09:54;2.00;;;1.90;;
19788;SDS011;10054;59.332;18.244;2023-04-24T09:12:23;2.27;;;2.07;;
19788;SDS011;10054;59.332;18.244;2023-04-24T09:14:52;2.20;;;2.00;;
19788;SDS011;10054;59.332;18.244;2023-04-24T09:17:22;3.37;;;1.70;;
19788;SDS011;10054;59.332;18.244;2023-04-24T09:19:53;1.77;;;1.67;;
19788;SDS011;10054;59.332;18.244;2023-04-24T09:22:22;3.17;;;2.10;;
19788;SDS011;10054;59.332;18.244;2023-04-24T09:25:05;2.90;;;2.60;;
19788;SDS011;10054;59.332;18.244;2023-04-24T09:27:43;3.07;;;2.30;;
19788;SDS011;10054;59.332;18.244;2023-04-24T09:30:10;2.77;;;2.33;;
19788;SDS011;10054;59.332;18.244;2023-04-24T09:32:40;3.83;;;2.43;;
19788;SDS011;10054;59.332;18.244;2023-04-24T09:35:13;5.00;;;2.43;;
19788;SDS011;10054;59.332;18.244;2023-04-24T09:37:44;3.10;;;2.37;;
19788;SDS011;10054;59.332;18.244;2023-04-24T09:40:19;3.60;;;2.27;;
19788;SDS011;10054;59.332;18.244;2023-04-24T09:42:53;2.70;;;1.60;;
19788;SDS011;10054;59.332;18.244;2023-04-24T09:45:38;2.47;;;1.80;;
19788;SDS011;10054;59.332;18.244;2023-04-24T09:48:04;1.67;;;1.57;;
19788;SDS011;10054;59.332;18.244;2023-04-24T09:50:34;2.10;;;1.70;;
19788;SDS011;10054;59.332;18.244;2023-04-24T09:53:03;3.10;;;1.67;;
19788;SDS011;10054;59.332;18.244;2023-04-24T09:55:38;2.57;;;2.30;;
19788;SDS011;10054;59.332;18.244;2023-04-24T09:58:09;2.80;;;2.17;;
19788;SDS011;10054;59.332;18.244;2023-04-24T10:00:39;2.27;;;2.07;;
19788;SDS011;10054;59.332;18.244;2023-04-24T10:03:07;2.93;;;1.83;;
19788;SDS011;10054;59.332;18.244;2023-04-24T10:05:37;3.13;;;1.97;;
19788;SDS011;10054;59.332;18.244;2023-04-24T10:08:08;1.83;;;1.70;;
19788;SDS011;10054;59.332;18.244;2023-04-24T10:10:38;1.70;;;1.57;;
19788;SDS011;10054;59.332;18.244;2023-04-24T10:13:09;1.40;;;1.30;;
19788;SDS011;10054;59.332;18.244;2023-04-24T10:15:38;2.60;;;1.60;;
19788;SDS011;10054;59.332;18.244;2023-04-24T10:18:09;2.07;;;1.80;;
19788;SDS011;10054;59.332;18.244;2023-04-24T10:20:39;1.90;;;1.80;;
19788;SDS011;10054;59.332;18.244;2023-04-24T10:23:08;1.87;;;1.70;;
19788;SDS011;10054;59.332;18.244;2023-04-24T10:25:37;3.23;;;2.00;;
19788;SDS011;10054;59.332;18.244;2023-04-24T10:28:06;1.57;;;1.47;;
19788;SDS011;10054;59.332;18.244;2023-04-24T10:30:37;1.97;;;1.50;;
19788;SDS011;10054;59.332;18.244;2023-04-24T10:33:08;1.90;;;1.60;;
19788;SDS011;10054;59.332;18.244;2023-04-24T10:35:40;2.03;;;1.53;;
19788;SDS011;10054;59.332;18.244;2023-04-24T10:38:21;1.90;;;1.70;;
19788;SDS011;10054;59.332;18.244;2023-04-24T10:41:11;3.10;;;2.20;;
19788;SDS011;10054;59.332;18.244;2023-04-24T10:43:45;2.23;;;1.73;;
19788;SDS011;10054;59.332;18.244;2023-04-24T10:46:24;1.43;;;1.33;;
19788;SDS011;10054;59.332;18.244;2023-04-24T10:48:52;1.77;;;1.43;;
19788;SDS011;10054;59.332;18.244;2023-04-24T10:51:22;1.70;;;1.30;;
19788;SDS011;10054;59.332;18.244;2023-04-24T10:53:52;2.67;;;1.57;;
19788;SDS011;10054;59.332;18.244;2023-04-24T10:56:21;2.13;;;1.90;;
19788;SDS011;10054;59.332;18.244;2023-04-24T10:58:51;2.30;;;1.70;;
19788;SDS011;10054;59.332;18.244;2023-04-24T11:01:24;1.70;;;1.60;;
19788;SDS011;10054;59.332;18.244;2023-04-24T11:04:02;2.57;;;1.80;;
19788;SDS011;10054;59.332;18.244;2023-04-24T11:06:32;2.10;;;1.77;;
19788;SDS011;10054;59.332;18.244;2023-04-24T11:11:38;1.70;;;1.43;;
19788;SDS011;10054;59.332;18.244;2023-04-24T11:14:08;2.40;;;1.50;;
19788;SDS011;10054;59.332;18.244;2023-04-24T11:16:44;4.97;;;1.70;;
19788;SDS011;10054;59.332;18.244;2023-04-24T11:21:59;2.40;;;1.67;;
19788;SDS011;10054;59.332;18.244;2023-04-24T11:24:40;2.70;;;2.00;;
19788;SDS011;10054;59.332;18.244;2023-04-24T11:27:19;2.17;;;1.97;;
19788;SDS011;10054;59.332;18.244;2023-04-24T11:29:59;2.17;;;1.90;;
19788;SDS011;10054;59.332;18.244;2023-04-24T11:33:01;1.90;;;1.80;;
19788;SDS011;10054;59.332;18.244;2023-04-24T11:35:23;3.60;;;1.90;;
19788;SDS011;10054;59.332;18.244;2023-04-24T11:37:46;2.20;;;2.00;;
19788;SDS011;10054;59.332;18.244;2023-04-24T11:40:18;3.73;;;1.80;;
19788;SDS011;10054;59.332;18.244;2023-04-24T11:42:51;2.20;;;2.00;;
19788;SDS011;10054;59.332;18.244;2023-04-24T11:45:26;1.87;;;1.73;;
19788;SDS011;10054;59.332;18.244;2023-04-24T11:47:57;3.63;;;2.00;;
19788;SDS011;10054;59.332;18.244;2023-04-24T11:50:26;3.17;;;2.47;;
19788;SDS011;10054;59.332;18.244;2023-04-24T11:52:56;3.07;;;2.13;;
19788;SDS011;10054;59.332;18.244;2023-04-24T11:55:26;1.93;;;1.70;;
19788;SDS011;10054;59.332;18.244;2023-04-24T11:57:57;2.37;;;1.73;;
19788;SDS011;10054;59.332;18.244;2023-04-24T12:00:31;2.90;;;1.77;;
19788;SDS011;10054;59.332;18.244;2023-04-24T12:03:07;2.60;;;1.70;;
19788;SDS011;10054;59.332;18.244;2023-04-24T12:05:38;1.90;;;1.80;;
19788;SDS011;10054;59.332;18.244;2023-04-24T12:08:07;2.27;;;1.83;;
19788;SDS011;10054;59.332;18.244;2023-04-24T12:10:36;4.87;;;3.63;;
19788;SDS011;10054;59.332;18.244;2023-04-24T12:13:04;3.47;;;1.70;;
19788;SDS011;10054;59.332;18.244;2023-04-24T12:15:34;2.67;;;2.10;;
19788;SDS011;10054;59.332;18.244;2023-04-24T12:18:05;2.87;;;2.07;;
19788;SDS011;10054;59.332;18.244;2023-04-24T12:20:35;3.23;;;2.03;;
19788;SDS011;10054;59.332;18.244;2023-04-24T12:23:04;2.93;;;2.10;;
19788;SDS011;10054;59.332;18.244;2023-04-24T12:25:32;3.00;;;1.93;;
19788;SDS011;10054;59.332;18.244;2023-04-24T12:30:42;4.10;;;2.40;;
19788;SDS011;10054;59.332;18.244;2023-04-24T12:33:12;2.30;;;2.10;;
19788;SDS011;10054;59.332;18.244;2023-04-24T12:35:42;4.13;;;2.00;;
19788;SDS011;10054;59.332;18.244;2023-04-24T12:38:12;2.67;;;2.07;;
19788;SDS011;10054;59.332;18.244;2023-04-24T12:40:42;5.03;;;2.40;;
19788;SDS011;10054;59.332;18.244;2023-04-24T12:43:18;3.50;;;2.37;;
19788;SDS011;10054;59.332;18.244;2023-04-24T12:45:47;3.63;;;2.37;;
19788;SDS011;10054;59.332;18.244;2023-04-24T12:48:16;2.83;;;2.40;;
19788;SDS011;10054;59.332;18.244;2023-04-24T12:50:46;3.00;;;2.30;;
19788;SDS011;10054;59.332;18.244;2023-04-24T12:53:15;2.10;;;2.00;;
19788;SDS011;10054;59.332;18.244;2023-04-24T12:55:44;2.43;;;2.00;;
19788;SDS011;10054;59.332;18.244;2023-04-24T12:58:14;2.33;;;1.90;;
19788;SDS011;10054;59.332;18.244;2023-04-24T13:00:43;3.80;;;1.97;;
19788;SDS011;10054;59.332;18.244;2023-04-24T13:03:12;2.30;;;2.10;;
19788;SDS011;10054;59.332;18.244;2023-04-24T13:05:42;2.97;;;2.00;;
19788;SDS011;10054;59.332;18.244;2023-04-24T13:08:11;2.00;;;1.80;;
19788;SDS011;10054;59.332;18.244;2023-04-24T13:10:40;3.43;;;2.10;;
19788;SDS011;10054;59.332;18.244;2023-04-24T13:13:10;2.97;;;2.03;;
19788;SDS011;10054;59.332;18.244;2023-04-24T13:15:39;3.33;;;2.00;;
19788;SDS011;10054;59.332;18.244;2023-04-24T13:18:08;4.80;;;1.83;;
19788;SDS011;10054;59.332;18.244;2023-04-24T13:20:37;1.70;;;1.60;;
19788;SDS011;10054;59.332;18.244;2023-04-24T13:23:07;1.70;;;1.60;;
19788;SDS011;10054;59.332;18.244;2023-04-24T13:25:36;2.60;;;1.90;;
19788;SDS011;10054;59.332;18.244;2023-04-24T13:28:05;2.50;;;1.87;;
19788;SDS011;10054;59.332;18.244;2023-04-24T13:30:34;4.20;;;1.87;;
19788;SDS011;10054;59.332;18.244;2023-04-24T13:33:02;3.90;;;2.20;;
19788;SDS011;10054;59.332;18.244;2023-04-24T13:35:31;3.37;;;1.97;;
19788;SDS011;10054;59.332;18.244;2023-04-24T13:38:00;2.37;;;2.17;;
19788;SDS011;10054;59.332;18.244;2023-04-24T13:40:30;2.47;;;1.87;;
19788;SDS011;10054;59.332;18.244;2023-04-24T13:42:59;3.17;;;2.00;;
19788;SDS011;10054;59.332;18.244;2023-04-24T13:45:28;2.37;;;2.17;;
19788;SDS011;10054;59.332;18.244;2023-04-24T13:47:57;4.07;;;2.30;;
19788;SDS011;10054;59.332;18.244;2023-04-24T13:50:25;2.43;;;2.20;;
19788;SDS011;10054;59.332;18.244;2023-04-24T13:52:54;2.37;;;2.10;;
19788;SDS011;10054;59.332;18.244;2023-04-24T13:55:23;2.63;;;2.30;;
19788;SDS011;10054;59.332;18.244;2023-04-24T13:57:52;3.00;;;2.00;;
19788;SDS011;10054;59.332;18.244;2023-04-24T14:00:21;3.10;;;1.90;;
19788;SDS011;10054;59.332;18.244;2023-04-24T14:02:50;3.50;;;2.20;;
19788;SDS011;10054;59.332;18.244;2023-04-24T14:05:19;4.00;;;2.30;;
19788;SDS011;10054;59.332;18.244;2023-04-24T14:07:48;2.90;;;2.10;;
19788;SDS011;10054;59.332;18.244;2023-04-24T14:10:17;3.40;;;2.27;;
19788;SDS011;10054;59.332;18.244;2023-04-24T14:12:46;2.57;;;1.67;;
19788;SDS011;10054;59.332;18.244;2023-04-24T14:15:15;3.70;;;1.80;;
19788;SDS011;10054;59.332;18.244;2023-04-24T14:18:04;2.20;;;2.00;;
19788;SDS011;10054;59.332;18.244;2023-04-24T14:20:33;2.37;;;1.80;;
19788;SDS011;10054;59.332;18.244;2023-04-24T14:23:03;4.30;;;1.73;;
19788;SDS011;10054;59.332;18.244;2023-04-24T14:25:32;3.50;;;2.00;;
19788;SDS011;10054;59.332;18.244;2023-04-24T14:28:01;3.33;;;2.10;;
19788;SDS011;10054;59.332;18.244;2023-04-24T14:30:30;3.20;;;1.77;;
19788;SDS011;10054;59.332;18.244;2023-04-24T14:32:59;7.67;;;2.27;;
19788;SDS011;10054;59.332;18.244;2023-04-24T14:35:27;3.53;;;2.03;;
19788;SDS011;10054;59.332;18.244;2023-04-24T14:37:58;4.20;;;2.50;;
19788;SDS011;10054;59.332;18.244;2023-04-24T14:40:27;3.20;;;2.67;;
19788;SDS011;10054;59.332;18.244;2023-04-24T14:42:57;2.20;;;2.00;;
19788;SDS011;10054;59.332;18.244;2023-04-24T14:45:26;2.37;;;2.00;;
19788;SDS011;10054;59.332;18.244;2023-04-24T14:47:56;2.37;;;1.77;;
19788;SDS011;10054;59.332;18.244;2023-04-24T14:50:26;2.57;;;2.10;;
19788;SDS011;10054;59.332;18.244;2023-04-24T14:52:55;4.97;;;2.90;;
19788;SDS011;10054;59.332;18.244;2023-04-24T14:55:24;3.83;;;2.80;;
19788;SDS011;10054;59.332;18.244;2023-04-24T14:57:53;3.07;;;2.73;;